Time;durP1;ratioP1;P1;durP2;ratioP2;P2;SDS_P1;SDS_P2;PMS_P1;PMS_P2;Temp;Humidity;BMP_temperature;BMP_pressure;BME280_temperature;BME280_humidity;BME280_pressure;Samples;Min_cycle;Max_cycle;Signal;HPM_P1;HPM_P2
2022/10/08 00:00:55;;;;;;;;;;;13.40;99.90;;;;;;6003829;23;20020;-92
2022/10/08 00:03:22;;;;;;;;;;;13.40;99.90;;;;;;6002767;23;19914;-92
2022/10/08 00:06:02;;;;;;;;;;;13.40;99.90;;;;;;6003936;23;19921;-92
2022/10/08 00:08:28;;;;;;;;;;;13.40;99.90;;;;;;6003810;23;19963;-92
2022/10/08 00:10:59;;;;;;;;;;;13.40;99.90;;;;;;5981289;24;19918;-91
2022/10/08 00:13:25;;;;;;;;;;;13.40;99.90;;;;;;6003884;23;19938;-92
2022/10/08 00:15:51;;;;;;;;;;;13.40;99.90;;;;;;5981479;23;19942;-92
2022/10/08 00:18:17;;;;;;;;;;;13.40;99.90;;;;;;5956020;24;19989;-91
2022/10/08 00:20:42;;;;;;;;;;;13.30;99.90;;;;;;5958991;24;20235;-92
2022/10/08 00:23:08;;;;;;;;;;;13.40;99.90;;;;;;6005639;23;19914;-92
2022/10/08 00:25:43;;;;;;;;;;;13.40;99.90;;;;;;5983087;24;19994;-91
2022/10/08 00:28:09;;;;;;;;;;;13.40;99.90;;;;;;6003507;23;19914;-90
2022/10/08 00:30:39;;;;;;;;;;;13.30;99.90;;;;;;5979850;24;19918;-91
2022/10/08 00:33:08;;;;;;;;;;;13.20;99.90;;;;;;6002437;23;19918;-89
2022/10/08 00:35:37;;;;;;;;;;;13.30;99.90;;;;;;5979670;24;19926;-89
2022/10/08 00:38:03;;;;;;;;;;;13.20;99.90;;;;;;5980560;24;19989;-90
2022/10/08 00:40:28;;;;;;;;;;;13.20;99.90;;;;;;5981426;24;20016;-89
2022/10/08 00:42:54;;;;;;;;;;;13.20;99.90;;;;;;6003317;23;19958;-91
2022/10/08 00:45:20;;;;;;;;;;;13.10;99.90;;;;;;6002698;23;19914;-90
2022/10/08 00:47:46;;;;;;;;;;;13.10;99.90;;;;;;6002091;23;20337;-90
2022/10/08 00:50:24;;;;;;;;;;;13.10;99.90;;;;;;6003397;23;19947;-90
2022/10/08 00:52:55;;;;;;;;;;;13.10;99.90;;;;;;6002741;23;19983;-90
2022/10/08 00:55:21;;;;;;;;;;;13.00;99.90;;;;;;6003248;23;19922;-91
2022/10/08 00:57:47;;;;;;;;;;;13.00;99.90;;;;;;5956384;24;19915;-90
2022/10/08 01:00:15;;;;;;;;;;;13.00;99.90;;;;;;6002146;23;19966;-90
2022/10/08 01:02:40;;;;;;;;;;;13.00;99.90;;;;;;5981886;24;19962;-90
2022/10/08 01:05:06;;;;;;;;;;;13.00;99.90;;;;;;5981111;24;20278;-90
2022/10/08 01:07:40;;;;;;;;;;;13.00;99.90;;;;;;5979354;24;19953;-92
2022/10/08 01:10:05;;;;;;;;;;;13.00;99.90;;;;;;6002940;23;20030;-90
2022/10/08 01:12:31;;;;;;;;;;;12.90;99.90;;;;;;5981764;23;20329;-91
2022/10/08 01:14:59;;;;;;;;;;;12.90;99.90;;;;;;6002183;23;19939;-90
2022/10/08 01:17:37;;;;;;;;;;;12.90;99.90;;;;;;6003128;23;19914;-91
2022/10/08 01:20:21;;;;;;;;;;;13.00;99.90;;;;;;5981027;24;19946;-90
2022/10/08 01:23:02;;;;;;;;;;;12.90;99.90;;;;;;5980147;24;19925;-91
2022/10/08 01:25:34;;;;;;;;;;;12.90;99.90;;;;;;6006859;23;19914;-91
2022/10/08 01:28:02;;;;;;;;;;;12.90;99.90;;;;;;5983335;24;19921;-90
2022/10/08 01:30:30;;;;;;;;;;;12.80;99.90;;;;;;5980397;24;20322;-89
2022/10/08 01:32:58;;;;;;;;;;;12.80;99.90;;;;;;5955967;24;19914;-89
2022/10/08 01:35:27;;;;;;;;;;;12.80;99.90;;;;;;5978920;24;19914;-89
2022/10/08 01:37:54;;;;;;;;;;;12.80;99.90;;;;;;6002824;23;19918;-89
2022/10/08 01:40:23;;;;;;;;;;;12.80;99.90;;;;;;5979334;24;19918;-90
2022/10/08 01:42:49;;;;;;;;;;;12.80;99.90;;;;;;6003041;23;20344;-90
2022/10/08 01:45:18;;;;;;;;;;;12.90;99.90;;;;;;5955944;24;19914;-90
2022/10/08 01:47:44;;;;;;;;;;;12.80;99.90;;;;;;5980067;24;19967;-89
2022/10/08 01:50:13;;;;;;;;;;;12.80;99.90;;;;;;5981855;23;19925;-88
2022/10/08 01:52:43;;;;;;;;;;;12.70;99.90;;;;;;5979394;24;19914;-88
2022/10/08 01:55:12;;;;;;;;;;;12.70;99.90;;;;;;6003242;23;19919;-90
2022/10/08 01:57:38;;;;;;;;;;;12.80;99.90;;;;;;6002384;23;19993;-89
2022/10/08 02:00:05;;;;;;;;;;;12.80;99.90;;;;;;5955826;24;19970;-88
2022/10/08 02:02:31;;;;;;;;;;;12.80;99.90;;;;;;6002719;23;19998;-89
2022/10/08 02:04:57;;;;;;;;;;;12.90;99.90;;;;;;5978934;24;19946;-90
2022/10/08 02:07:24;;;;;;;;;;;12.80;99.90;;;;;;5979083;24;19947;-90
2022/10/08 02:10:03;;;;;;;;;;;12.70;99.90;;;;;;6002921;23;20225;-90
2022/10/08 02:12:28;;;;;;;;;;;12.70;99.90;;;;;;5982132;24;20352;-91
2022/10/08 02:14:55;;;;;;;;;;;12.70;99.90;;;;;;6005472;23;19914;-90
2022/10/08 02:17:24;;;;;;;;;;;12.70;99.90;;;;;;6005084;23;19914;-91
2022/10/08 02:19:55;;;;;;;;;;;12.70;99.90;;;;;;5957619;24;20001;-92
2022/10/08 02:22:23;;;;;;;;;;;12.70;99.90;;;;;;5982143;23;19914;-90
2022/10/08 02:24:51;;;;;;;;;;;12.70;99.90;;;;;;5982073;24;19914;-90
2022/10/08 02:27:18;;;;;;;;;;;12.60;99.90;;;;;;5983200;23;19914;-90
2022/10/08 02:29:47;;;;;;;;;;;12.70;99.90;;;;;;5981652;24;20249;-89
2022/10/08 02:32:33;;;;;;;;;;;12.70;99.90;;;;;;5983508;24;19949;-91
2022/10/08 02:35:25;;;;;;;;;;;12.70;99.90;;;;;;5981891;23;19915;-89
2022/10/08 02:37:57;;;;;;;;;;;12.70;99.90;;;;;;5979245;23;19925;-90
2022/10/08 02:40:23;;;;;;;;;;;12.70;99.90;;;;;;5981314;24;19926;-90
2022/10/08 02:42:51;;;;;;;;;;;12.70;99.90;;;;;;5980455;24;20226;-90
2022/10/08 02:45:29;;;;;;;;;;;12.70;99.90;;;;;;6004407;23;19922;-90
2022/10/08 02:48:00;;;;;;;;;;;12.70;99.90;;;;;;5981108;24;20221;-90
2022/10/08 02:50:27;;;;;;;;;;;12.60;99.90;;;;;;5982192;24;19951;-91
2022/10/08 02:52:53;;;;;;;;;;;12.60;99.90;;;;;;5980589;24;20321;-90
2022/10/08 02:55:22;;;;;;;;;;;12.60;99.90;;;;;;6004355;23;19921;-90
2022/10/08 02:57:59;;;;;;;;;;;12.60;99.90;;;;;;6004037;23;19986;-89
2022/10/08 03:00:26;;;;;;;;;;;12.60;99.90;;;;;;5982292;24;19926;-91
2022/10/08 03:02:56;;;;;;;;;;;12.60;99.90;;;;;;5980848;24;20020;-90
2022/10/08 03:05:22;;;;;;;;;;;12.60;99.90;;;;;;6003867;23;19922;-89
2022/10/08 03:07:50;;;;;;;;;;;12.40;99.90;;;;;;5957957;24;19915;-91
2022/10/08 03:10:15;;;;;;;;;;;12.40;99.90;;;;;;5982222;24;19918;-90
2022/10/08 03:12:41;;;;;;;;;;;12.30;99.90;;;;;;6004108;23;19918;-90
2022/10/08 03:15:10;;;;;;;;;;;12.30;99.90;;;;;;5957449;24;19921;-89
2022/10/08 03:17:40;;;;;;;;;;;12.30;99.90;;;;;;5982569;23;20282;-90
2022/10/08 03:20:07;;;;;;;;;;;12.20;99.90;;;;;;5982785;24;19946;-90
2022/10/08 03:22:33;;;;;;;;;;;12.20;99.90;;;;;;5980480;24;19993;-89
2022/10/08 03:24:59;;;;;;;;;;;12.10;99.90;;;;;;5956536;24;20320;-89
2022/10/08 03:27:24;;;;;;;;;;;12.10;99.90;;;;;;6004040;23;19914;-89
2022/10/08 03:29:55;;;;;;;;;;;12.10;99.90;;;;;;6003938;23;20002;-89
2022/10/08 03:32:24;;;;;;;;;;;12.00;99.90;;;;;;5982820;24;19918;-89
2022/10/08 03:34:50;;;;;;;;;;;11.90;99.90;;;;;;6004900;23;19918;-88
2022/10/08 03:37:16;;;;;;;;;;;11.90;99.90;;;;;;5959801;24;19963;-89
2022/10/08 03:39:44;;;;;;;;;;;11.90;99.90;;;;;;6005007;23;19919;-90
2022/10/08 03:42:10;;;;;;;;;;;11.80;99.90;;;;;;5981171;24;19915;-90
2022/10/08 03:44:36;;;;;;;;;;;11.80;99.90;;;;;;5982080;24;19915;-90
2022/10/08 03:47:01;;;;;;;;;;;11.80;99.90;;;;;;5982249;24;19937;-89
2022/10/08 03:49:27;;;;;;;;;;;11.70;99.90;;;;;;5982133;23;19919;-89
2022/10/08 03:51:52;;;;;;;;;;;11.70;99.90;;;;;;5982099;24;20022;-89
2022/10/08 03:54:18;;;;;;;;;;;11.70;99.90;;;;;;6004402;23;19989;-89
2022/10/08 03:56:43;;;;;;;;;;;11.70;99.90;;;;;;5959794;24;19954;-89
2022/10/08 03:59:09;;;;;;;;;;;11.70;99.90;;;;;;5985729;24;19914;-88
2022/10/08 04:01:35;;;;;;;;;;;11.70;99.90;;;;;;5981157;24;19993;-90
2022/10/08 04:04:00;;;;;;;;;;;11.70;99.90;;;;;;5982503;24;19949;-89
2022/10/08 04:06:26;;;;;;;;;;;11.70;99.90;;;;;;5980709;24;19914;-90
2022/10/08 04:08:52;;;;;;;;;;;11.70;99.90;;;;;;6003720;23;19918;-89
2022/10/08 04:11:18;;;;;;;;;;;11.70;99.90;;;;;;5957934;24;19958;-89
2022/10/08 04:13:44;;;;;;;;;;;11.70;99.90;;;;;;5984813;24;19918;-89
2022/10/08 04:16:11;;;;;;;;;;;11.70;99.90;;;;;;5985635;24;19967;-89
2022/10/08 04:18:36;;;;;;;;;;;11.70;99.90;;;;;;6006978;23;19914;-88
2022/10/08 04:21:03;;;;;;;;;;;11.70;99.90;;;;;;5985199;24;19914;-89
2022/10/08 04:23:30;;;;;;;;;;;11.70;99.90;;;;;;5982871;24;19969;-89
2022/10/08 04:25:56;;;;;;;;;;;11.70;99.90;;;;;;5959845;24;20253;-89
2022/10/08 04:28:21;;;;;;;;;;;11.70;99.90;;;;;;5985444;23;19922;-89
2022/10/08 04:31:01;;;;;;;;;;;11.70;99.90;;;;;;5990750;24;19914;-89
2022/10/08 04:33:27;;;;;;;;;;;11.80;99.90;;;;;;6014527;23;19915;-90
2022/10/08 04:35:53;;;;;;;;;;;11.80;99.90;;;;;;5990563;24;19922;-90
2022/10/08 04:38:22;;;;;;;;;;;11.90;99.90;;;;;;6000896;24;19919;-88
2022/10/08 04:40:47;;;;;;;;;;;11.80;99.90;;;;;;5993466;24;19958;-89
2022/10/08 04:43:13;;;;;;;;;;;11.80;99.90;;;;;;6011247;23;19918;-89
2022/10/08 04:45:45;;;;;;;;;;;11.80;99.90;;;;;;5983049;23;19993;-91
2022/10/08 04:48:13;;;;;;;;;;;11.90;99.90;;;;;;5979896;24;19971;-90
2022/10/08 04:50:39;;;;;;;;;;;11.90;99.90;;;;;;6004165;23;19926;-90
2022/10/08 04:53:05;;;;;;;;;;;11.90;99.90;;;;;;5956232;24;19914;-91
2022/10/08 04:55:31;;;;;;;;;;;12.00;99.90;;;;;;6002836;23;19918;-91
2022/10/08 04:57:56;;;;;;;;;;;12.00;99.90;;;;;;6003070;23;19919;-92
2022/10/08 05:00:22;;;;;;;;;;;12.00;99.90;;;;;;5979587;24;19958;-91
2022/10/08 05:02:48;;;;;;;;;;;12.00;99.90;;;;;;6002610;23;19914;-91
2022/10/08 05:05:14;;;;;;;;;;;12.00;99.90;;;;;;5956363;24;19925;-92
2022/10/08 05:07:39;;;;;;;;;;;12.00;99.90;;;;;;6002870;23;19914;-90
2022/10/08 05:10:05;;;;;;;;;;;12.00;99.90;;;;;;5981256;24;19938;-90
2022/10/08 05:12:31;;;;;;;;;;;12.00;99.90;;;;;;5980000;24;19922;-91
2022/10/08 05:14:56;;;;;;;;;;;12.00;99.90;;;;;;5956774;24;19953;-92
2022/10/08 05:17:22;;;;;;;;;;;12.00;99.90;;;;;;5979719;24;19926;-91
2022/10/08 05:19:47;;;;;;;;;;;12.00;99.90;;;;;;5981347;24;19915;-91
2022/10/08 05:22:13;;;;;;;;;;;11.90;99.90;;;;;;5979719;24;20333;-91
2022/10/08 05:24:38;;;;;;;;;;;11.90;99.90;;;;;;5957534;24;20294;-91
2022/10/08 05:27:04;;;;;;;;;;;11.90;99.90;;;;;;5980484;24;19921;-91
2022/10/08 05:29:30;;;;;;;;;;;11.80;99.90;;;;;;6003047;23;19923;-92
2022/10/08 05:31:56;;;;;;;;;;;11.80;99.90;;;;;;5957154;24;20404;-91
2022/10/08 05:34:22;;;;;;;;;;;11.80;99.90;;;;;;5980453;24;19934;-91
2022/10/08 05:36:47;;;;;;;;;;;11.80;99.90;;;;;;5956158;24;19920;-91
2022/10/08 05:39:13;;;;;;;;;;;11.70;99.90;;;;;;6003666;23;19919;-91
2022/10/08 05:41:39;;;;;;;;;;;11.70;99.90;;;;;;6003634;23;20351;-91
2022/10/08 05:44:05;;;;;;;;;;;11.70;99.90;;;;;;5984927;24;19914;-92
2022/10/08 05:46:32;;;;;;;;;;;11.60;99.90;;;;;;6016282;23;19939;-91
2022/10/08 05:48:59;;;;;;;;;;;11.60;99.90;;;;;;6007292;23;19993;-92
2022/10/08 05:51:25;;;;;;;;;;;11.60;99.90;;;;;;5981519;24;19986;-91
2022/10/08 05:53:51;;;;;;;;;;;11.50;99.90;;;;;;5958764;24;19922;-92
2022/10/08 05:56:18;;;;;;;;;;;11.40;99.90;;;;;;5958481;24;19993;-91
2022/10/08 05:58:44;;;;;;;;;;;11.50;99.90;;;;;;5982667;24;19981;-92
2022/10/08 06:01:20;;;;;;;;;;;11.60;99.90;;;;;;5959969;24;20281;-91
2022/10/08 06:04:17;;;;;;;;;;;11.40;99.90;;;;;;5960808;24;19962;-92
2022/10/08 06:06:42;;;;;;;;;;;11.40;99.90;;;;;;5965807;24;19971;-93
2022/10/08 06:09:13;;;;;;;;;;;11.30;99.90;;;;;;5959872;24;19926;-91
2022/10/08 06:11:39;;;;;;;;;;;11.40;99.90;;;;;;5984794;23;19914;-92
2022/10/08 06:14:06;;;;;;;;;;;11.40;99.90;;;;;;5960254;24;19963;-91
2022/10/08 06:16:31;;;;;;;;;;;11.40;99.90;;;;;;5985778;24;19925;-92
2022/10/08 06:18:57;;;;;;;;;;;11.40;99.90;;;;;;5982056;24;19914;-92
2022/10/08 06:21:24;;;;;;;;;;;11.40;99.90;;;;;;5959075;24;19951;-92
2022/10/08 06:23:54;;;;;;;;;;;11.40;99.90;;;;;;6007065;23;19997;-92
2022/10/08 06:26:21;;;;;;;;;;;11.50;99.90;;;;;;5959012;24;19921;-91
2022/10/08 06:28:47;;;;;;;;;;;11.40;99.90;;;;;;5957953;24;19948;-92
2022/10/08 06:31:12;;;;;;;;;;;11.40;99.90;;;;;;5983725;24;20214;-92
2022/10/08 06:33:38;;;;;;;;;;;11.40;99.90;;;;;;5981625;24;19914;-91
2022/10/08 06:36:04;;;;;;;;;;;11.40;99.90;;;;;;6005510;23;19919;-92
2022/10/08 06:38:30;;;;;;;;;;;11.40;99.90;;;;;;6004855;23;19990;-90
2022/10/08 06:40:56;;;;;;;;;;;11.40;99.90;;;;;;5983416;24;20337;-92
2022/10/08 06:43:22;;;;;;;;;;;11.30;99.90;;;;;;5982716;24;19915;-91
2022/10/08 06:45:48;;;;;;;;;;;11.40;99.90;;;;;;5958524;24;19914;-91
2022/10/08 06:48:13;;;;;;;;;;;11.40;99.90;;;;;;5958169;24;20012;-92
2022/10/08 06:50:39;;;;;;;;;;;11.40;99.90;;;;;;5983740;24;19918;-92
2022/10/08 06:53:06;;;;;;;;;;;11.50;99.90;;;;;;5958735;24;19974;-93
2022/10/08 06:55:32;;;;;;;;;;;11.50;99.90;;;;;;5982811;24;20321;-91
2022/10/08 06:57:58;;;;;;;;;;;11.50;99.90;;;;;;5982281;24;20290;-90
2022/10/08 07:00:23;;;;;;;;;;;11.50;99.90;;;;;;5982248;24;19966;-90
2022/10/08 07:02:49;;;;;;;;;;;11.50;99.90;;;;;;5981088;24;19922;-91
2022/10/08 07:05:14;;;;;;;;;;;11.60;99.90;;;;;;6005259;23;19990;-91
2022/10/08 07:07:40;;;;;;;;;;;11.60;99.90;;;;;;5983981;24;19926;-92
2022/10/08 07:10:06;;;;;;;;;;;11.60;99.90;;;;;;6005555;23;19954;-91
2022/10/08 07:12:31;;;;;;;;;;;11.60;99.90;;;;;;5958576;24;19967;-92
2022/10/08 07:14:57;;;;;;;;;;;11.60;99.90;;;;;;6012997;23;19914;-90
2022/10/08 07:17:25;;;;;;;;;;;11.80;99.90;;;;;;6014565;23;20230;-90
2022/10/08 07:19:51;;;;;;;;;;;11.80;99.90;;;;;;5961409;24;19919;-90
2022/10/08 07:22:16;;;;;;;;;;;11.80;99.90;;;;;;6006488;23;19963;-91
2022/10/08 07:24:42;;;;;;;;;;;11.90;99.90;;;;;;5982670;24;20245;-89
2022/10/08 07:27:08;;;;;;;;;;;12.00;99.90;;;;;;6006530;23;20321;-91
2022/10/08 07:29:33;;;;;;;;;;;12.00;99.90;;;;;;5984715;24;19930;-91
2022/10/08 07:31:59;;;;;;;;;;;12.10;99.90;;;;;;5984438;24;19921;-91
2022/10/08 07:34:24;;;;;;;;;;;12.10;99.90;;;;;;5984334;23;19921;-90
2022/10/08 07:36:50;;;;;;;;;;;12.20;99.90;;;;;;5982906;24;19919;-90
2022/10/08 07:39:19;;;;;;;;;;;12.30;99.90;;;;;;5981765;24;19946;-91
2022/10/08 07:41:45;;;;;;;;;;;12.40;99.90;;;;;;5981621;24;19914;-92
2022/10/08 07:44:11;;;;;;;;;;;12.40;99.90;;;;;;5959658;24;19923;-92
2022/10/08 07:46:40;;;;;;;;;;;12.40;99.90;;;;;;5960371;24;19924;-92
2022/10/08 07:49:06;;;;;;;;;;;12.40;99.90;;;;;;5959760;24;19955;-89
2022/10/08 07:51:32;;;;;;;;;;;12.40;99.90;;;;;;5984204;24;19978;-91
2022/10/08 07:53:58;;;;;;;;;;;12.40;99.90;;;;;;5963404;24;20289;-91
2022/10/08 07:56:24;;;;;;;;;;;12.40;99.90;;;;;;6008073;23;19962;-90
2022/10/08 07:58:50;;;;;;;;;;;12.40;99.90;;;;;;6004470;23;20321;-90
2022/10/08 08:01:18;;;;;;;;;;;12.40;99.90;;;;;;6006413;23;19978;-92
2022/10/08 08:03:43;;;;;;;;;;;12.50;99.90;;;;;;6007469;23;19919;-90
2022/10/08 08:06:10;;;;;;;;;;;12.40;99.90;;;;;;5984410;24;20006;-90
2022/10/08 08:08:37;;;;;;;;;;;12.50;99.90;;;;;;5984196;23;19914;-89
2022/10/08 08:11:03;;;;;;;;;;;12.50;99.90;;;;;;5983040;24;19921;-89
2022/10/08 08:13:30;;;;;;;;;;;12.60;99.90;;;;;;5985102;24;19914;-90
2022/10/08 08:15:56;;;;;;;;;;;12.60;99.90;;;;;;5984322;24;19914;-91
2022/10/08 08:18:22;;;;;;;;;;;12.70;99.90;;;;;;5984245;24;19914;-90
2022/10/08 08:20:47;;;;;;;;;;;12.70;99.90;;;;;;5963713;24;19926;-90
2022/10/08 08:23:13;;;;;;;;;;;12.80;99.90;;;;;;5962177;24;19934;-92
2022/10/08 08:25:39;;;;;;;;;;;12.80;99.90;;;;;;5986903;24;19930;-91
2022/10/08 08:28:04;;;;;;;;;;;12.90;99.90;;;;;;6011344;23;19915;-93
2022/10/08 08:30:30;;;;;;;;;;;12.80;99.90;;;;;;5965369;24;19914;-92
2022/10/08 08:32:59;;;;;;;;;;;12.90;99.90;;;;;;6013492;23;19921;-90
2022/10/08 08:35:25;;;;;;;;;;;12.90;99.90;;;;;;5976496;24;19914;-90
2022/10/08 08:37:50;;;;;;;;;;;13.00;99.90;;;;;;5970948;24;19930;-89
2022/10/08 08:40:16;;;;;;;;;;;13.00;99.90;;;;;;5997552;24;19942;-90
2022/10/08 08:42:41;;;;;;;;;;;13.10;99.90;;;;;;6009839;23;20306;-89
2022/10/08 08:45:13;;;;;;;;;;;13.30;99.90;;;;;;6003823;23;19915;-89
2022/10/08 08:47:40;;;;;;;;;;;13.40;99.90;;;;;;5981411;24;19952;-91
2022/10/08 08:50:06;;;;;;;;;;;13.50;99.90;;;;;;5982932;24;19919;-90
2022/10/08 08:52:33;;;;;;;;;;;13.60;99.90;;;;;;6004255;23;20250;-90
2022/10/08 08:54:59;;;;;;;;;;;13.60;99.90;;;;;;5981903;23;19919;-91
2022/10/08 08:57:33;;;;;;;;;;;13.70;99.90;;;;;;6002844;23;19914;-89
2022/10/08 09:00:19;;;;;;;;;;;13.70;99.90;;;;;;5981433;23;19914;-90
2022/10/08 09:02:54;;;;;;;;;;;13.70;99.90;;;;;;5957025;24;19918;-88
2022/10/08 09:05:20;;;;;;;;;;;13.70;99.90;;;;;;6003754;23;19919;-91
2022/10/08 09:07:54;;;;;;;;;;;13.80;99.90;;;;;;5980127;24;19915;-91
2022/10/08 09:10:22;;;;;;;;;;;13.80;99.90;;;;;;6004063;23;19922;-92
2022/10/08 09:12:51;;;;;;;;;;;13.80;99.90;;;;;;5980607;24;19988;-90
2022/10/08 09:15:18;;;;;;;;;;;13.80;99.90;;;;;;6003612;23;19915;-91
2022/10/08 09:17:44;;;;;;;;;;;13.80;99.90;;;;;;6003425;23;19914;-91
2022/10/08 09:20:14;;;;;;;;;;;13.80;99.90;;;;;;6003937;23;19918;-92
2022/10/08 09:22:40;;;;;;;;;;;13.90;99.90;;;;;;5983028;23;19966;-92
2022/10/08 09:25:13;;;;;;;;;;;13.90;99.90;;;;;;5983674;23;19914;-91
2022/10/08 09:27:43;;;;;;;;;;;13.90;99.90;;;;;;5981990;24;19919;-90
2022/10/08 09:30:21;;;;;;;;;;;14.10;99.90;;;;;;5981694;24;19926;-88
2022/10/08 09:32:47;;;;;;;;;;;14.10;99.90;;;;;;6005316;23;20046;-91
2022/10/08 09:35:13;;;;;;;;;;;14.10;99.90;;;;;;5982713;24;19923;-91
2022/10/08 09:37:43;;;;;;;;;;;14.10;99.90;;;;;;5983883;24;19915;-90
2022/10/08 09:40:12;;;;;;;;;;;14.10;99.90;;;;;;6005466;23;19971;-91
2022/10/08 09:42:38;;;;;;;;;;;14.20;99.90;;;;;;5963770;24;19915;-92
2022/10/08 09:45:23;;;;;;;;;;;14.30;99.90;;;;;;5958895;24;20246;-93
2022/10/08 09:48:08;;;;;;;;;;;14.40;99.90;;;;;;5983572;24;19997;-89
2022/10/08 09:50:35;;;;;;;;;;;14.50;99.90;;;;;;5981816;23;19926;-90
2022/10/08 09:53:00;;;;;;;;;;;14.60;99.90;;;;;;5982215;24;19926;-92
2022/10/08 09:55:30;;;;;;;;;;;14.70;99.90;;;;;;5958411;24;19914;-91
2022/10/08 09:57:59;;;;;;;;;;;14.80;99.90;;;;;;6004114;23;19914;-92
2022/10/08 10:00:27;;;;;;;;;;;15.00;99.90;;;;;;5958102;24;20191;-90
2022/10/08 10:02:54;;;;;;;;;;;15.00;99.90;;;;;;5985237;24;20278;-90
2022/10/08 10:05:24;;;;;;;;;;;15.00;99.90;;;;;;5991317;24;19902;-92
2022/10/08 10:07:50;;;;;;;;;;;14.90;99.90;;;;;;6007216;23;19918;-92
2022/10/08 10:10:20;;;;;;;;;;;14.60;99.90;;;;;;5981713;24;19918;-90
2022/10/08 10:12:48;;;;;;;;;;;14.20;99.90;;;;;;5981717;24;20374;-90
2022/10/08 10:15:16;;;;;;;;;;;13.80;99.90;;;;;;5982198;24;19915;-92
2022/10/08 10:17:48;;;;;;;;;;;13.50;99.90;;;;;;5983312;24;19926;-92
2022/10/08 10:20:22;;;;;;;;;;;13.30;99.90;;;;;;5957530;24;20248;-92
2022/10/08 10:22:53;;;;;;;;;;;13.10;99.90;;;;;;5958034;24;19914;-91
2022/10/08 10:25:36;;;;;;;;;;;12.90;99.90;;;;;;5983277;23;19915;-92
2022/10/08 10:28:25;;;;;;;;;;;12.90;99.90;;;;;;6004809;23;19994;-92
2022/10/08 10:30:58;;;;;;;;;;;12.80;99.90;;;;;;5901925;24;19975;-93
2022/10/08 10:33:25;;;;;;;;;;;12.80;99.90;;;;;;5901570;24;19963;-91
2022/10/08 10:35:59;;;;;;;;;;;12.90;99.90;;;;;;5924812;24;19915;-91
2022/10/08 10:38:27;;;;;;;;;;;12.90;99.90;;;;;;5902147;24;19915;-90
2022/10/08 10:41:02;;;;;;;;;;;13.00;99.90;;;;;;5901933;24;20345;-91
2022/10/08 10:43:49;;;;;;;;;;;13.10;99.90;;;;;;5851982;24;19927;-90
2022/10/08 10:46:14;;;;;;;;;;;13.20;99.90;;;;;;5874636;24;19922;-90
2022/10/08 10:48:40;;;;;;;;;;;13.30;99.90;;;;;;5897384;24;20385;-92
2022/10/08 10:51:18;;;;;;;;;;;13.40;99.90;;;;;;5896639;24;19920;-89
2022/10/08 10:54:03;;;;;;;;;;;13.50;99.90;;;;;;5896951;24;19916;-91
2022/10/08 10:56:34;;;;;;;;;;;13.50;99.90;;;;;;5896398;24;19916;-86
2022/10/08 10:59:08;;;;;;;;;;;13.60;99.90;;;;;;5897009;24;19915;-90
2022/10/08 11:01:48;;;;;;;;;;;13.70;99.90;;;;;;5898133;24;20489;-91
2022/10/08 11:04:25;;;;;;;;;;;13.90;99.90;;;;;;5900227;24;19990;-91
2022/10/08 11:06:51;;;;;;;;;;;14.00;99.90;;;;;;5881373;24;19915;-90
2022/10/08 11:09:35;;;;;;;;;;;14.20;99.90;;;;;;5959112;24;19922;-88
2022/10/08 11:12:07;;;;;;;;;;;14.30;99.90;;;;;;5957435;24;20243;-90
2022/10/08 11:14:43;;;;;;;;;;;14.30;99.90;;;;;;5954431;24;19915;-91
2022/10/08 11:17:12;;;;;;;;;;;14.20;99.90;;;;;;5958401;24;19922;-90
2022/10/08 11:20:01;;;;;;;;;;;14.20;99.90;;;;;;5916680;24;19919;-89
2022/10/08 11:22:34;;;;;;;;;;;14.20;99.90;;;;;;5956500;24;20318;-90
2022/10/08 11:25:05;;;;;;;;;;;14.20;99.90;;;;;;5955713;24;19915;-92
2022/10/08 11:27:31;;;;;;;;;;;14.20;99.90;;;;;;5954923;24;19921;-90
2022/10/08 11:29:56;;;;;;;;;;;14.10;99.90;;;;;;5955096;24;19915;-90
2022/10/08 11:32:22;;;;;;;;;;;14.10;99.90;;;;;;5953699;24;20337;-90
2022/10/08 11:34:52;;;;;;;;;;;14.00;99.90;;;;;;5952717;24;19919;-88
2022/10/08 11:37:17;;;;;;;;;;;13.90;99.90;;;;;;5907356;24;20237;-90
2022/10/08 11:40:01;;;;;;;;;;;13.80;99.90;;;;;;5966843;23;19918;-89
2022/10/08 11:42:38;;;;;;;;;;;13.70;99.90;;;;;;5980491;24;20016;-89
2022/10/08 11:45:22;;;;;;;;;;;13.80;99.90;;;;;;5981489;23;19973;-89
2022/10/08 11:47:50;;;;;;;;;;;13.80;99.90;;;;;;5982308;24;19915;-89
2022/10/08 11:50:32;;;;;;;;;;;13.90;99.90;;;;;;5959490;24;19946;-91
2022/10/08 11:53:12;;;;;;;;;;;14.00;99.90;;;;;;6004472;23;19989;-91
2022/10/08 11:55:38;;;;;;;;;;;14.10;99.90;;;;;;6005011;23;19921;-90
2022/10/08 11:58:05;;;;;;;;;;;14.20;99.90;;;;;;5981490;24;20249;-90
2022/10/08 12:00:33;;;;;;;;;;;14.30;99.90;;;;;;6004815;23;19967;-89
2022/10/08 12:02:58;;;;;;;;;;;14.50;99.90;;;;;;6004781;23;19914;-90
2022/10/08 12:05:24;;;;;;;;;;;14.60;99.90;;;;;;5981175;24;19957;-91
2022/10/08 12:07:51;;;;;;;;;;;14.60;99.90;;;;;;5984381;24;19919;-91
2022/10/08 12:10:16;;;;;;;;;;;14.60;99.90;;;;;;5985588;24;19926;-91
2022/10/08 12:12:48;;;;;;;;;;;14.60;99.90;;;;;;6007237;23;19915;-90
2022/10/08 12:15:23;;;;;;;;;;;14.50;99.90;;;;;;5966275;24;19954;-92
2022/10/08 12:17:58;;;;;;;;;;;14.40;99.90;;;;;;5992726;24;19925;-93
2022/10/08 12:20:28;;;;;;;;;;;14.30;99.90;;;;;;6009222;23;19918;-93
2022/10/08 12:23:02;;;;;;;;;;;14.30;99.90;;;;;;6007791;23;19915;-91
2022/10/08 12:25:32;;;;;;;;;;;14.30;99.90;;;;;;5985867;24;19954;-93
2022/10/08 12:28:17;;;;;;;;;;;14.40;99.90;;;;;;6011662;23;19915;-92
2022/10/08 12:30:46;;;;;;;;;;;14.40;99.90;;;;;;5989461;24;19903;-91
2022/10/08 12:33:12;;;;;;;;;;;14.50;99.90;;;;;;6015933;23;19943;-94
2022/10/08 12:36:01;;;;;;;;;;;14.60;99.90;;;;;;5969113;24;19958;-88
2022/10/08 12:38:49;;;;;;;;;;;14.50;99.90;;;;;;5972162;24;20054;-89
2022/10/08 12:41:21;;;;;;;;;;;14.50;99.90;;;;;;6003774;23;19918;-91
2022/10/08 12:43:51;;;;;;;;;;;14.50;99.90;;;;;;6003544;23;19915;-91
2022/10/08 12:46:35;;;;;;;;;;;14.60;99.90;;;;;;5981575;24;19914;-93
2022/10/08 12:49:01;;;;;;;;;;;14.60;99.90;;;;;;5980333;24;19924;-93
2022/10/08 12:51:27;;;;;;;;;;;14.70;99.90;;;;;;5981036;24;20365;-91
2022/10/08 12:53:53;;;;;;;;;;;14.70;99.90;;;;;;6003759;23;20001;-92
2022/10/08 12:56:25;;;;;;;;;;;14.70;99.90;;;;;;5980406;24;19914;-91
2022/10/08 12:58:51;;;;;;;;;;;14.80;99.90;;;;;;6004061;23;19969;-93
2022/10/08 13:01:18;;;;;;;;;;;15.00;99.90;;;;;;5957129;24;19921;-92
2022/10/08 13:03:44;;;;;;;;;;;14.90;99.90;;;;;;5957424;24;19922;-92
2022/10/08 13:06:25;;;;;;;;;;;15.00;99.90;;;;;;5980324;24;19919;-93
2022/10/08 13:08:51;;;;;;;;;;;15.20;99.90;;;;;;6003739;23;19926;-91
2022/10/08 13:11:16;;;;;;;;;;;15.40;99.90;;;;;;6003770;23;19918;-93
2022/10/08 13:13:44;;;;;;;;;;;15.50;99.90;;;;;;6004301;23;20286;-89
2022/10/08 13:16:14;;;;;;;;;;;15.50;99.90;;;;;;5957647;24;19914;-94
2022/10/08 13:18:41;;;;;;;;;;;15.60;99.90;;;;;;5982745;23;19922;-91
2022/10/08 13:21:25;;;;;;;;;;;15.60;99.90;;;;;;6002747;23;20002;-93
2022/10/08 13:23:51;;;;;;;;;;;15.60;99.90;;;;;;5981586;24;20340;-92
2022/10/08 13:26:37;;;;;;;;;;;15.50;99.90;;;;;;5980658;24;19925;-91
2022/10/08 13:29:25;;;;;;;;;;;15.40;99.90;;;;;;5978994;23;20218;-93
2022/10/08 13:31:53;;;;;;;;;;;15.30;99.90;;;;;;5980845;24;19925;-93
2022/10/08 13:34:19;;;;;;;;;;;15.20;99.90;;;;;;5980923;24;19914;-91
2022/10/08 13:36:49;;;;;;;;;;;15.20;99.90;;;;;;5982692;24;19966;-93
2022/10/08 13:39:23;;;;;;;;;;;15.20;99.90;;;;;;6003010;23;19927;-93
2022/10/08 13:41:54;;;;;;;;;;;15.20;99.90;;;;;;6003280;23;20344;-91
2022/10/08 13:44:20;;;;;;;;;;;15.30;99.90;;;;;;6003217;23;19963;-90
2022/10/08 13:46:45;;;;;;;;;;;15.30;99.90;;;;;;6002960;23;20409;-92
2022/10/08 13:49:21;;;;;;;;;;;15.30;99.90;;;;;;5981555;24;19926;-90
2022/10/08 13:51:47;;;;;;;;;;;15.20;99.90;;;;;;5980683;24;19915;-92
2022/10/08 13:54:15;;;;;;;;;;;15.20;99.90;;;;;;5956849;24;19919;-95
2022/10/08 13:56:41;;;;;;;;;;;15.10;99.90;;;;;;5982891;24;19915;-92
2022/10/08 13:59:08;;;;;;;;;;;15.10;99.90;;;;;;5957350;24;19914;-93
2022/10/08 14:01:33;;;;;;;;;;;15.10;99.90;;;;;;5980992;24;19946;-91
2022/10/08 14:03:59;;;;;;;;;;;15.00;99.90;;;;;;6003353;23;20385;-93
2022/10/08 14:06:24;;;;;;;;;;;15.00;99.90;;;;;;5980269;24;19914;-91
2022/10/08 14:08:50;;;;;;;;;;;15.00;99.90;;;;;;5981707;24;19915;-93
2022/10/08 14:11:16;;;;;;;;;;;15.10;99.90;;;;;;5959071;24;19918;-88
2022/10/08 14:13:42;;;;;;;;;;;15.10;99.90;;;;;;6005670;23;19918;-92
2022/10/08 14:16:08;;;;;;;;;;;15.00;99.90;;;;;;5957804;24;19937;-89
2022/10/08 14:18:33;;;;;;;;;;;15.00;99.90;;;;;;6004692;23;20301;-89
2022/10/08 14:20:59;;;;;;;;;;;14.90;99.90;;;;;;5985917;24;19918;-91
2022/10/08 14:23:24;;;;;;;;;;;14.80;99.90;;;;;;5996438;23;19914;-92
2022/10/08 14:25:50;;;;;;;;;;;14.80;99.90;;;;;;5988679;23;19926;-93